sensor_id;sensor_type;location;lat;lon;timestamp;temperature;humidity
3086;DHT22;52812;48.960;9.108;2022-12-10T00:01:42;1.00;99.90
3086;DHT22;52812;48.960;9.108;2022-12-10T00:04:08;1.00;99.90
3086;DHT22;52812;48.960;9.108;2022-12-10T00:06:35;1.00;99.90
3086;DHT22;52812;48.960;9.108;2022-12-10T00:09:03;1.00;99.90
3086;DHT22;52812;48.960;9.108;2022-12-10T00:11:29;1.00;99.90
3086;DHT22;52812;48.960;9.108;2022-12-10T00:13:55;0.90;99.90
3086;DHT22;52812;48.960;9.108;2022-12-10T00:16:23;0.90;99.90
3086;DHT22;52812;48.960;9.108;2022-12-10T00:18:49;0.90;99.90
3086;DHT22;52812;48.960;9.108;2022-12-10T00:21:21;0.90;99.90
3086;DHT22;52812;48.960;9.108;2022-12-10T00:23:47;0.90;99.90
3086;DHT22;52812;48.960;9.108;2022-12-10T00:26:16;0.90;99.90
3086;DHT22;52812;48.960;9.108;2022-12-10T00:28:43;0.90;99.90
3086;DHT22;52812;48.960;9.108;2022-12-10T00:31:12;0.90;99.90
3086;DHT22;52812;48.960;9.108;2022-12-10T00:33:38;0.90;99.90
3086;DHT22;52812;48.960;9.108;2022-12-10T00:36:09;0.90;99.90
3086;DHT22;52812;48.960;9.108;2022-12-10T00:38:35;0.90;99.90
3086;DHT22;52812;48.960;9.108;2022-12-10T00:41:02;0.90;99.90
3086;DHT22;52812;48.960;9.108;2022-12-10T00:43:28;0.90;99.90
3086;DHT22;52812;48.960;9.108;2022-12-10T00:45:54;0.90;99.90
3086;DHT22;52812;48.960;9.108;2022-12-10T00:48:20;0.90;99.90
3086;DHT22;52812;48.960;9.108;2022-12-10T00:53:21;0.90;99.90
3086;DHT22;52812;48.960;9.108;2022-12-10T00:55:46;0.90;99.90
3086;DHT22;52812;48.960;9.108;2022-12-10T00:58:12;0.90;99.90
3086;DHT22;52812;48.960;9.108;2022-12-10T01:00:38;0.90;99.90
3086;DHT22;52812;48.960;9.108;2022-12-10T01:03:03;0.90;99.90
3086;DHT22;52812;48.960;9.108;2022-12-10T01:05:29;0.90;99.90
3086;DHT22;52812;48.960;9.108;2022-12-10T01:07:54;0.90;99.90
3086;DHT22;52812;48.960;9.108;2022-12-10T01:10:20;0.90;99.90
3086;DHT22;52812;48.960;9.108;2022-12-10T01:12:45;0.90;99.90
3086;DHT22;52812;48.960;9.108;2022-12-10T01:15:11;0.90;99.90
3086;DHT22;52812;48.960;9.108;2022-12-10T01:17:37;0.90;99.90
3086;DHT22;52812;48.960;9.108;2022-12-10T01:20:03;0.90;99.90
3086;DHT22;52812;48.960;9.108;2022-12-10T01:22:28;0.90;99.90
3086;DHT22;52812;48.960;9.108;2022-12-10T01:24:54;0.90;99.90
3086;DHT22;52812;48.960;9.108;2022-12-10T01:27:19;0.90;99.90
3086;DHT22;52812;48.960;9.108;2022-12-10T01:29:45;0.90;99.90
3086;DHT22;52812;48.960;9.108;2022-12-10T01:32:11;0.90;99.90
3086;DHT22;52812;48.960;9.108;2022-12-10T01:34:36;0.90;99.90
3086;DHT22;52812;48.960;9.108;2022-12-10T01:37:02;0.90;99.90
3086;DHT22;52812;48.960;9.108;2022-12-10T01:39:27;0.90;99.90
3086;DHT22;52812;48.960;9.108;2022-12-10T01:41:58;0.90;99.90
3086;DHT22;52812;48.960;9.108;2022-12-10T01:46:51;0.90;99.90
3086;DHT22;52812;48.960;9.108;2022-12-10T01:49:26;0.80;99.90
3086;DHT22;52812;48.960;9.108;2022-12-10T01:51:54;0.80;99.90
3086;DHT22;52812;48.960;9.108;2022-12-10T01:56:52;0.80;99.90
3086;DHT22;52812;48.960;9.108;2022-12-10T01:59:19;0.80;99.90
3086;DHT22;52812;48.960;9.108;2022-12-10T02:02:04;0.80;99.90
3086;DHT22;52812;48.960;9.108;2022-12-10T02:04:56;0.80;99.90
3086;DHT22;52812;48.960;9.108;2022-12-10T02:07:48;0.80;99.90
3086;DHT22;52812;48.960;9.108;2022-12-10T02:18:49;0.80;99.90
3086;DHT22;52812;48.960;9.108;2022-12-10T02:21:32;0.80;99.90
3086;DHT22;52812;48.960;9.108;2022-12-10T02:24:01;0.80;99.90
3086;DHT22;52812;48.960;9.108;2022-12-10T02:29:18;0.70;99.90
3086;DHT22;52812;48.960;9.108;2022-12-10T02:32:02;0.70;99.90
3086;DHT22;52812;48.960;9.108;2022-12-10T02:34:32;0.70;99.90
3086;DHT22;52812;48.960;9.108;2022-12-10T02:37:01;0.70;99.90
3086;DHT22;52812;48.960;9.108;2022-12-10T02:39:35;0.70;99.90
3086;DHT22;52812;48.960;9.108;2022-12-10T02:42:05;0.60;99.90
3086;DHT22;52812;48.960;9.108;2022-12-10T02:44:33;0.60;99.90
3086;DHT22;52812;48.960;9.108;2022-12-10T02:47:01;0.60;99.90
3086;DHT22;52812;48.960;9.108;2022-12-10T02:49:28;0.60;99.90
3086;DHT22;52812;48.960;9.108;2022-12-10T02:51:55;0.50;99.90
3086;DHT22;52812;48.960;9.108;2022-12-10T02:54:46;0.50;99.90
3086;DHT22;52812;48.960;9.108;2022-12-10T03:00:16;0.50;99.90
3086;DHT22;52812;48.960;9.108;2022-12-10T03:13:12;0.40;99.90
3086;DHT22;52812;48.960;9.108;2022-12-10T03:15:41;0.30;99.90
3086;DHT22;52812;48.960;9.108;2022-12-10T03:18:09;0.30;99.90
3086;DHT22;52812;48.960;9.108;2022-12-10T03:20:40;0.30;99.90
3086;DHT22;52812;48.960;9.108;2022-12-10T03:23:10;0.30;99.90
3086;DHT22;52812;48.960;9.108;2022-12-10T03:25:37;0.20;99.90
3086;DHT22;52812;48.960;9.108;2022-12-10T03:28:04;0.20;99.90
3086;DHT22;52812;48.960;9.108;2022-12-10T03:30:32;0.10;99.90
3086;DHT22;52812;48.960;9.108;2022-12-10T03:32:59;0.00;99.90
3086;DHT22;52812;48.960;9.108;2022-12-10T03:35:25;0.00;99.90
3086;DHT22;52812;48.960;9.108;2022-12-10T03:37:51;-0.10;99.90
3086;DHT22;52812;48.960;9.108;2022-12-10T03:40:21;-0.20;99.90
3086;DHT22;52812;48.960;9.108;2022-12-10T03:42:48;-0.20;99.90
3086;DHT22;52812;48.960;9.108;2022-12-10T03:45:14;-0.20;99.90
3086;DHT22;52812;48.960;9.108;2022-12-10T03:47:41;-0.20;99.90
3086;DHT22;52812;48.960;9.108;2022-12-10T03:50:07;-0.20;99.90
3086;DHT22;52812;48.960;9.108;2022-12-10T03:52:32;-0.20;99.90
3086;DHT22;52812;48.960;9.108;2022-12-10T03:54:58;-0.10;99.90
3086;DHT22;52812;48.960;9.108;2022-12-10T03:57:24;-0.10;99.90
3086;DHT22;52812;48.960;9.108;2022-12-10T03:59:54;-0.10;99.90
3086;DHT22;52812;48.960;9.108;2022-12-10T04:02:20;-0.10;99.90
3086;DHT22;52812;48.960;9.108;2022-12-10T04:04:46;-0.10;99.90
3086;DHT22;52812;48.960;9.108;2022-12-10T04:07:11;0.00;99.90
3086;DHT22;52812;48.960;9.108;2022-12-10T04:09:39;0.00;99.90
3086;DHT22;52812;48.960;9.108;2022-12-10T04:12:05;0.00;99.90
3086;DHT22;52812;48.960;9.108;2022-12-10T04:14:31;0.10;99.90
3086;DHT22;52812;48.960;9.108;2022-12-10T04:17:35;0.10;99.90
3086;DHT22;52812;48.960;9.108;2022-12-10T04:20:00;0.10;99.90
3086;DHT22;52812;48.960;9.108;2022-12-10T04:22:26;0.10;99.90
3086;DHT22;52812;48.960;9.108;2022-12-10T04:25:13;0.10;99.90
3086;DHT22;52812;48.960;9.108;2022-12-10T04:27:57;0.10;99.90
3086;DHT22;52812;48.960;9.108;2022-12-10T04:30:23;0.10;99.90
3086;DHT22;52812;48.960;9.108;2022-12-10T04:32:48;0.10;99.90
3086;DHT22;52812;48.960;9.108;2022-12-10T04:35:14;0.20;99.90
3086;DHT22;52812;48.960;9.108;2022-12-10T04:37:40;0.20;99.90
3086;DHT22;52812;48.960;9.108;2022-12-10T04:40:06;0.20;99.90
3086;DHT22;52812;48.960;9.108;2022-12-10T04:42:32;0.20;99.90
3086;DHT22;52812;48.960;9.108;2022-12-10T04:44:57;0.20;99.90
3086;DHT22;52812;48.960;9.108;2022-12-10T04:47:23;0.20;99.90
3086;DHT22;52812;48.960;9.108;2022-12-10T04:49:49;0.20;99.90
3086;DHT22;52812;48.960;9.108;2022-12-10T04:52:15;0.20;99.90
3086;DHT22;52812;48.960;9.108;2022-12-10T04:54:42;0.20;99.90
3086;DHT22;52812;48.960;9.108;2022-12-10T04:57:08;0.20;99.90
3086;DHT22;52812;48.960;9.108;2022-12-10T04:59:35;0.20;99.90
3086;DHT22;52812;48.960;9.108;2022-12-10T05:02:01;0.20;99.90
3086;DHT22;52812;48.960;9.108;2022-12-10T05:04:26;0.30;99.90
3086;DHT22;52812;48.960;9.108;2022-12-10T05:06:52;0.30;99.90
3086;DHT22;52812;48.960;9.108;2022-12-10T05:09:18;0.30;99.90
3086;DHT22;52812;48.960;9.108;2022-12-10T05:11:44;0.30;99.90
3086;DHT22;52812;48.960;9.108;2022-12-10T05:14:13;0.30;99.90
3086;DHT22;52812;48.960;9.108;2022-12-10T05:16:40;0.30;99.90
3086;DHT22;52812;48.960;9.108;2022-12-10T05:19:05;0.30;99.90
3086;DHT22;52812;48.960;9.108;2022-12-10T05:21:31;0.20;99.90
3086;DHT22;52812;48.960;9.108;2022-12-10T05:24:18;0.30;99.90
3086;DHT22;52812;48.960;9.108;2022-12-10T05:26:44;0.30;99.90
3086;DHT22;52812;48.960;9.108;2022-12-10T05:29:11;0.30;99.90
3086;DHT22;52812;48.960;9.108;2022-12-10T05:31:37;0.30;99.90
3086;DHT22;52812;48.960;9.108;2022-12-10T05:34:03;0.20;99.90
3086;DHT22;52812;48.960;9.108;2022-12-10T05:36:30;0.30;99.90
3086;DHT22;52812;48.960;9.108;2022-12-10T05:38:57;0.30;99.90
3086;DHT22;52812;48.960;9.108;2022-12-10T05:41:25;0.30;99.90
3086;DHT22;52812;48.960;9.108;2022-12-10T05:43:56;0.30;99.90
3086;DHT22;52812;48.960;9.108;2022-12-10T05:46:29;0.30;99.90
3086;DHT22;52812;48.960;9.108;2022-12-10T05:48:56;0.30;99.90
3086;DHT22;52812;48.960;9.108;2022-12-10T05:51:25;0.30;99.90
3086;DHT22;52812;48.960;9.108;2022-12-10T05:53:51;0.30;99.90
3086;DHT22;52812;48.960;9.108;2022-12-10T05:56:19;0.30;99.90
3086;DHT22;52812;48.960;9.108;2022-12-10T05:58:46;0.30;99.90
3086;DHT22;52812;48.960;9.108;2022-12-10T06:01:15;0.30;99.90
3086;DHT22;52812;48.960;9.108;2022-12-10T06:03:41;0.30;99.90
3086;DHT22;52812;48.960;9.108;2022-12-10T06:06:07;0.30;99.90
3086;DHT22;52812;48.960;9.108;2022-12-10T06:08:34;0.40;99.90
3086;DHT22;52812;48.960;9.108;2022-12-10T06:11:04;0.40;99.90
3086;DHT22;52812;48.960;9.108;2022-12-10T06:13:30;0.40;99.90
3086;DHT22;52812;48.960;9.108;2022-12-10T06:15:55;0.40;99.90
3086;DHT22;52812;48.960;9.108;2022-12-10T06:18:21;0.30;99.90
3086;DHT22;52812;48.960;9.108;2022-12-10T06:20:47;0.30;99.90
3086;DHT22;52812;48.960;9.108;2022-12-10T06:23:12;0.30;99.90
3086;DHT22;52812;48.960;9.108;2022-12-10T06:25:39;0.30;99.90
3086;DHT22;52812;48.960;9.108;2022-12-10T06:28:05;0.30;99.90
3086;DHT22;52812;48.960;9.108;2022-12-10T06:30:31;0.30;99.90
3086;DHT22;52812;48.960;9.108;2022-12-10T06:32:56;0.30;99.90
3086;DHT22;52812;48.960;9.108;2022-12-10T06:35:22;0.30;99.90
3086;DHT22;52812;48.960;9.108;2022-12-10T06:37:49;0.30;99.90
3086;DHT22;52812;48.960;9.108;2022-12-10T06:40:15;0.20;99.90
3086;DHT22;52812;48.960;9.108;2022-12-10T06:42:41;0.20;99.90
3086;DHT22;52812;48.960;9.108;2022-12-10T06:45:06;0.20;99.90
3086;DHT22;52812;48.960;9.108;2022-12-10T06:47:32;0.20;99.90
3086;DHT22;52812;48.960;9.108;2022-12-10T06:49:58;0.20;99.90
3086;DHT22;52812;48.960;9.108;2022-12-10T06:52:24;0.20;99.90
3086;DHT22;52812;48.960;9.108;2022-12-10T06:54:49;0.30;99.90
3086;DHT22;52812;48.960;9.108;2022-12-10T06:57:15;0.30;99.90
3086;DHT22;52812;48.960;9.108;2022-12-10T06:59:41;0.30;99.90
3086;DHT22;52812;48.960;9.108;2022-12-10T07:02:08;0.30;99.90
3086;DHT22;52812;48.960;9.108;2022-12-10T07:04:34;0.20;99.90
3086;DHT22;52812;48.960;9.108;2022-12-10T07:07:00;0.20;99.90
3086;DHT22;52812;48.960;9.108;2022-12-10T07:09:25;0.20;99.90
3086;DHT22;52812;48.960;9.108;2022-12-10T07:11:51;0.20;99.90
3086;DHT22;52812;48.960;9.108;2022-12-10T07:14:18;0.20;99.90
3086;DHT22;52812;48.960;9.108;2022-12-10T07:16:44;0.20;99.90
3086;DHT22;52812;48.960;9.108;2022-12-10T07:19:11;0.30;99.90
3086;DHT22;52812;48.960;9.108;2022-12-10T07:21:39;0.30;99.90
3086;DHT22;52812;48.960;9.108;2022-12-10T07:24:16;0.30;99.90
3086;DHT22;52812;48.960;9.108;2022-12-10T07:26:43;0.30;99.90
3086;DHT22;52812;48.960;9.108;2022-12-10T07:29:21;0.30;99.90
3086;DHT22;52812;48.960;9.108;2022-12-10T07:31:47;0.30;99.90
3086;DHT22;52812;48.960;9.108;2022-12-10T07:34:14;0.30;99.90
3086;DHT22;52812;48.960;9.108;2022-12-10T07:36:40;0.30;99.90
3086;DHT22;52812;48.960;9.108;2022-12-10T07:39:07;0.30;99.90
3086;DHT22;52812;48.960;9.108;2022-12-10T07:41:32;0.40;99.90
3086;DHT22;52812;48.960;9.108;2022-12-10T07:43:58;0.40;99.90
3086;DHT22;52812;48.960;9.108;2022-12-10T07:46:26;0.40;99.90
3086;DHT22;52812;48.960;9.108;2022-12-10T07:48:53;0.40;99.90
3086;DHT22;52812;48.960;9.108;2022-12-10T07:51:20;0.50;99.90
3086;DHT22;52812;48.960;9.108;2022-12-10T07:53:46;0.50;99.90
3086;DHT22;52812;48.960;9.108;2022-12-10T07:56:12;0.50;99.90
3086;DHT22;52812;48.960;9.108;2022-12-10T07:58:41;0.50;99.90
3086;DHT22;52812;48.960;9.108;2022-12-10T08:01:13;0.50;99.90
3086;DHT22;52812;48.960;9.108;2022-12-10T08:03:40;0.50;99.90
3086;DHT22;52812;48.960;9.108;2022-12-10T08:06:11;0.60;99.90
3086;DHT22;52812;48.960;9.108;2022-12-10T08:08:37;0.60;99.90
3086;DHT22;52812;48.960;9.108;2022-12-10T08:11:04;0.60;99.90
3086;DHT22;52812;48.960;9.108;2022-12-10T08:13:30;0.60;99.90
3086;DHT22;52812;48.960;9.108;2022-12-10T08:16:11;0.60;99.90
3086;DHT22;52812;48.960;9.108;2022-12-10T08:18:37;0.70;99.90
3086;DHT22;52812;48.960;9.108;2022-12-10T08:21:09;0.70;99.90
3086;DHT22;52812;48.960;9.108;2022-12-10T08:23:35;0.70;99.90
3086;DHT22;52812;48.960;9.108;2022-12-10T08:26:12;0.80;99.90
3086;DHT22;52812;48.960;9.108;2022-12-10T08:28:38;0.80;99.90
3086;DHT22;52812;48.960;9.108;2022-12-10T08:31:04;0.80;99.90
3086;DHT22;52812;48.960;9.108;2022-12-10T08:33:33;0.80;99.90
3086;DHT22;52812;48.960;9.108;2022-12-10T08:36:00;0.90;99.90
3086;DHT22;52812;48.960;9.108;2022-12-10T08:38:26;0.80;99.90
3086;DHT22;52812;48.960;9.108;2022-12-10T08:40:52;0.90;99.90
3086;DHT22;52812;48.960;9.108;2022-12-10T08:43:18;0.90;99.90
3086;DHT22;52812;48.960;9.108;2022-12-10T08:45:43;0.90;99.90
3086;DHT22;52812;48.960;9.108;2022-12-10T08:48:09;0.90;99.90
3086;DHT22;52812;48.960;9.108;2022-12-10T08:50:36;0.90;99.90
3086;DHT22;52812;48.960;9.108;2022-12-10T08:53:02;1.00;99.90
3086;DHT22;52812;48.960;9.108;2022-12-10T08:55:28;1.00;99.90
3086;DHT22;52812;48.960;9.108;2022-12-10T08:57:53;1.00;99.90
3086;DHT22;52812;48.960;9.108;2022-12-10T09:00:19;1.00;99.90
3086;DHT22;52812;48.960;9.108;2022-12-10T09:02:45;1.00;99.90
3086;DHT22;52812;48.960;9.108;2022-12-10T09:05:11;1.00;99.90
3086;DHT22;52812;48.960;9.108;2022-12-10T09:07:36;1.00;99.90
3086;DHT22;52812;48.960;9.108;2022-12-10T09:10:02;1.10;99.90
3086;DHT22;52812;48.960;9.108;2022-12-10T09:12:28;1.10;99.90
3086;DHT22;52812;48.960;9.108;2022-12-10T09:14:53;1.10;99.90
3086;DHT22;52812;48.960;9.108;2022-12-10T09:17:19;1.20;99.90
3086;DHT22;52812;48.960;9.108;2022-12-10T09:19:45;1.20;99.90
3086;DHT22;52812;48.960;9.108;2022-12-10T09:22:10;1.20;99.90
3086;DHT22;52812;48.960;9.108;2022-12-10T09:24:36;1.30;99.90
3086;DHT22;52812;48.960;9.108;2022-12-10T09:27:02;1.30;99.90
3086;DHT22;52812;48.960;9.108;2022-12-10T09:29:28;1.30;99.90
3086;DHT22;52812;48.960;9.108;2022-12-10T09:31:53;1.40;99.90
3086;DHT22;52812;48.960;9.108;2022-12-10T09:34:20;1.30;99.90
3086;DHT22;52812;48.960;9.108;2022-12-10T09:36:46;1.40;99.90
3086;DHT22;52812;48.960;9.108;2022-12-10T09:39:12;1.40;99.90
3086;DHT22;52812;48.960;9.108;2022-12-10T09:44:25;1.50;99.90
3086;DHT22;52812;48.960;9.108;2022-12-10T09:46:57;1.50;99.90
3086;DHT22;52812;48.960;9.108;2022-12-10T09:49:46;1.50;99.90
3086;DHT22;52812;48.960;9.108;2022-12-10T09:52:17;1.50;99.90
3086;DHT22;52812;48.960;9.108;2022-12-10T09:54:54;1.60;99.90
3086;DHT22;52812;48.960;9.108;2022-12-10T09:57:35;1.70;99.90
3086;DHT22;52812;48.960;9.108;2022-12-10T10:00:29;1.70;99.90
3086;DHT22;52812;48.960;9.108;2022-12-10T10:02:57;1.70;99.90
3086;DHT22;52812;48.960;9.108;2022-12-10T10:05:29;1.70;99.90
3086;DHT22;52812;48.960;9.108;2022-12-10T10:08:02;1.80;99.90
3086;DHT22;52812;48.960;9.108;2022-12-10T10:10:37;1.80;99.90
3086;DHT22;52812;48.960;9.108;2022-12-10T10:15:35;1.90;99.90
3086;DHT22;52812;48.960;9.108;2022-12-10T10:20:43;1.80;99.90
3086;DHT22;52812;48.960;9.108;2022-12-10T10:23:12;1.90;99.90
3086;DHT22;52812;48.960;9.108;2022-12-10T10:25:39;1.90;99.90
3086;DHT22;52812;48.960;9.108;2022-12-10T10:28:04;1.90;99.90
3086;DHT22;52812;48.960;9.108;2022-12-10T10:30:30;1.90;99.90
3086;DHT22;52812;48.960;9.108;2022-12-10T10:32:57;2.00;99.90
3086;DHT22;52812;48.960;9.108;2022-12-10T10:35:42;2.00;99.90
3086;DHT22;52812;48.960;9.108;2022-12-10T10:38:16;2.00;99.90
3086;DHT22;52812;48.960;9.108;2022-12-10T10:40:45;2.00;99.90
3086;DHT22;52812;48.960;9.108;2022-12-10T10:43:39;2.00;99.90
3086;DHT22;52812;48.960;9.108;2022-12-10T10:46:14;2.10;99.90
3086;DHT22;52812;48.960;9.108;2022-12-10T10:48:42;2.20;99.90
3086;DHT22;52812;48.960;9.108;2022-12-10T10:53:45;2.20;99.90
3086;DHT22;52812;48.960;9.108;2022-12-10T10:56:28;2.20;99.90
3086;DHT22;52812;48.960;9.108;2022-12-10T10:59:06;2.40;99.90
3086;DHT22;52812;48.960;9.108;2022-12-10T11:01:53;2.30;99.90
3086;DHT22;52812;48.960;9.108;2022-12-10T11:09:57;2.40;99.90
3086;DHT22;52812;48.960;9.108;2022-12-10T11:12:40;2.40;99.90
3086;DHT22;52812;48.960;9.108;2022-12-10T11:15:34;2.40;99.90
3086;DHT22;52812;48.960;9.108;2022-12-10T11:18:00;2.50;99.90
3086;DHT22;52812;48.960;9.108;2022-12-10T11:20:30;2.60;99.90
3086;DHT22;52812;48.960;9.108;2022-12-10T11:23:02;2.50;99.90
3086;DHT22;52812;48.960;9.108;2022-12-10T11:25:32;2.50;99.90
3086;DHT22;52812;48.960;9.108;2022-12-10T11:33:58;2.60;99.90
3086;DHT22;52812;48.960;9.108;2022-12-10T11:36:34;2.60;99.90
3086;DHT22;52812;48.960;9.108;2022-12-10T11:44:21;2.40;99.90
3086;DHT22;52812;48.960;9.108;2022-12-10T11:47:13;2.30;99.90
3086;DHT22;52812;48.960;9.108;2022-12-10T11:52:40;2.50;99.90
3086;DHT22;52812;48.960;9.108;2022-12-10T11:55:33;2.60;99.90
3086;DHT22;52812;48.960;9.108;2022-12-10T12:01:13;2.70;99.90
3086;DHT22;52812;48.960;9.108;2022-12-10T12:03:51;2.60;99.90
3086;DHT22;52812;48.960;9.108;2022-12-10T12:09:31;2.60;99.90
3086;DHT22;52812;48.960;9.108;2022-12-10T12:12:16;2.60;99.90
3086;DHT22;52812;48.960;9.108;2022-12-10T12:14:54;2.70;99.90
3086;DHT22;52812;48.960;9.108;2022-12-10T12:17:37;2.70;99.90
3086;DHT22;52812;48.960;9.108;2022-12-10T12:22:50;2.70;99.90
3086;DHT22;52812;48.960;9.108;2022-12-10T12:25:25;2.70;99.90
3086;DHT22;52812;48.960;9.108;2022-12-10T12:31:05;2.80;99.90
3086;DHT22;52812;48.960;9.108;2022-12-10T12:33:50;2.70;99.90
3086;DHT22;52812;48.960;9.108;2022-12-10T12:36:19;2.70;99.90
3086;DHT22;52812;48.960;9.108;2022-12-10T12:41:51;2.70;99.90
3086;DHT22;52812;48.960;9.108;2022-12-10T12:44:38;2.70;99.90
3086;DHT22;52812;48.960;9.108;2022-12-10T12:47:36;2.60;99.90
3086;DHT22;52812;48.960;9.108;2022-12-10T12:50:09;2.60;99.90
3086;DHT22;52812;48.960;9.108;2022-12-10T12:52:43;2.60;99.90
3086;DHT22;52812;48.960;9.108;2022-12-10T12:55:24;2.60;99.90
3086;DHT22;52812;48.960;9.108;2022-12-10T12:58:10;2.60;99.90
3086;DHT22;52812;48.960;9.108;2022-12-10T13:00:41;2.60;99.90
3086;DHT22;52812;48.960;9.108;2022-12-10T13:05:46;2.50;99.90
3086;DHT22;52812;48.960;9.108;2022-12-10T13:13:38;2.60;99.90
3086;DHT22;52812;48.960;9.108;2022-12-10T13:24:22;2.60;99.90
3086;DHT22;52812;48.960;9.108;2022-12-10T13:33:09;2.60;99.90
3086;DHT22;52812;48.960;9.108;2022-12-10T13:35:43;2.60;99.90
3086;DHT22;52812;48.960;9.108;2022-12-10T13:38:20;2.60;99.90
3086;DHT22;52812;48.960;9.108;2022-12-10T13:40:58;2.60;99.90
3086;DHT22;52812;48.960;9.108;2022-12-10T13:43:55;2.60;99.90
3086;DHT22;52812;48.960;9.108;2022-12-10T13:47:04;2.60;99.90
3086;DHT22;52812;48.960;9.108;2022-12-10T13:49:32;2.50;99.90
3086;DHT22;52812;48.960;9.108;2022-12-10T13:52:04;2.50;99.90
3086;DHT22;52812;48.960;9.108;2022-12-10T13:57:59;2.40;99.90
3086;DHT22;52812;48.960;9.108;2022-12-10T14:01:00;2.40;99.90
3086;DHT22;52812;48.960;9.108;2022-12-10T14:06:21;2.40;99.90
3086;DHT22;52812;48.960;9.108;2022-12-10T14:09:09;2.30;99.90
3086;DHT22;52812;48.960;9.108;2022-12-10T14:11:40;2.30;99.90
3086;DHT22;52812;48.960;9.108;2022-12-10T14:14:11;2.30;99.90
3086;DHT22;52812;48.960;9.108;2022-12-10T14:16:39;2.30;99.90
3086;DHT22;52812;48.960;9.108;2022-12-10T14:19:09;2.30;99.90
3086;DHT22;52812;48.960;9.108;2022-12-10T14:21:38;2.20;99.90
3086;DHT22;52812;48.960;9.108;2022-12-10T14:24:05;2.30;99.90
3086;DHT22;52812;48.960;9.108;2022-12-10T14:26:33;2.30;99.90
3086;DHT22;52812;48.960;9.108;2022-12-10T14:31:34;2.20;99.90
3086;DHT22;52812;48.960;9.108;2022-12-10T14:34:06;2.10;99.90
3086;DHT22;52812;48.960;9.108;2022-12-10T14:36:44;2.00;99.90
3086;DHT22;52812;48.960;9.108;2022-12-10T14:39:14;1.90;99.90
3086;DHT22;52812;48.960;9.108;2022-12-10T14:41:41;1.90;99.90
3086;DHT22;52812;48.960;9.108;2022-12-10T14:44:14;1.80;99.90
3086;DHT22;52812;48.960;9.108;2022-12-10T14:46:41;1.80;99.90
3086;DHT22;52812;48.960;9.108;2022-12-10T14:49:25;1.80;99.90
3086;DHT22;52812;48.960;9.108;2022-12-10T14:51:50;1.80;99.90
3086;DHT22;52812;48.960;9.108;2022-12-10T14:54:33;1.70;99.90
3086;DHT22;52812;48.960;9.108;2022-12-10T14:57:02;1.70;99.90
3086;DHT22;52812;48.960;9.108;2022-12-10T14:59:40;1.60;99.90
3086;DHT22;52812;48.960;9.108;2022-12-10T15:02:37;1.60;99.90
3086;DHT22;52812;48.960;9.108;2022-12-10T15:05:16;1.50;99.90
3086;DHT22;52812;48.960;9.108;2022-12-10T15:07:43;1.50;99.90
3086;DHT22;52812;48.960;9.108;2022-12-10T15:10:18;1.40;99.90
3086;DHT22;52812;48.960;9.108;2022-12-10T15:12:48;1.40;99.90
3086;DHT22;52812;48.960;9.108;2022-12-10T15:23:32;1.20;99.90
3086;DHT22;52812;48.960;9.108;2022-12-10T15:26:03;1.20;99.90
3086;DHT22;52812;48.960;9.108;2022-12-10T15:28:32;1.10;99.90
3086;DHT22;52812;48.960;9.108;2022-12-10T15:33:58;1.00;99.90
3086;DHT22;52812;48.960;9.108;2022-12-10T15:38:49;0.90;99.90
3086;DHT22;52812;48.960;9.108;2022-12-10T15:47:21;0.80;99.90
3086;DHT22;52812;48.960;9.108;2022-12-10T15:49:48;0.80;99.90
3086;DHT22;52812;48.960;9.108;2022-12-10T15:52:18;0.80;99.90
3086;DHT22;52812;48.960;9.108;2022-12-10T15:54:46;0.70;99.90
3086;DHT22;52812;48.960;9.108;2022-12-10T15:57:14;0.70;99.90
3086;DHT22;52812;48.960;9.108;2022-12-10T15:59:40;0.70;99.90
3086;DHT22;52812;48.960;9.108;2022-12-10T16:05:18;0.80;99.90
3086;DHT22;52812;48.960;9.108;2022-12-10T16:07:45;0.80;99.90
3086;DHT22;52812;48.960;9.108;2022-12-10T16:10:12;0.80;99.90
3086;DHT22;52812;48.960;9.108;2022-12-10T16:12:38;0.80;99.90
3086;DHT22;52812;48.960;9.108;2022-12-10T16:15:07;0.90;99.90
3086;DHT22;52812;48.960;9.108;2022-12-10T16:17:33;0.90;99.90
3086;DHT22;52812;48.960;9.108;2022-12-10T16:20:29;0.90;99.90
3086;DHT22;52812;48.960;9.108;2022-12-10T16:22:56;0.90;99.90
3086;DHT22;52812;48.960;9.108;2022-12-10T16:25:26;0.90;99.90
3086;DHT22;52812;48.960;9.108;2022-12-10T16:27:52;0.90;99.90
3086;DHT22;52812;48.960;9.108;2022-12-10T16:30:23;0.90;99.90
3086;DHT22;52812;48.960;9.108;2022-12-10T16:32:50;0.90;99.90
3086;DHT22;52812;48.960;9.108;2022-12-10T16:35:16;0.90;99.90
3086;DHT22;52812;48.960;9.108;2022-12-10T16:37:46;0.90;99.90
3086;DHT22;52812;48.960;9.108;2022-12-10T16:40:14;0.90;99.90
3086;DHT22;52812;48.960;9.108;2022-12-10T16:42:41;0.90;99.90
3086;DHT22;52812;48.960;9.108;2022-12-10T16:45:17;0.90;99.90
3086;DHT22;52812;48.960;9.108;2022-12-10T16:47:43;0.90;99.90
3086;DHT22;52812;48.960;9.108;2022-12-10T16:50:10;0.90;99.90
3086;DHT22;52812;48.960;9.108;2022-12-10T16:52:36;0.90;99.90
3086;DHT22;52812;48.960;9.108;2022-12-10T16:55:03;0.90;99.90
3086;DHT22;52812;48.960;9.108;2022-12-10T16:57:28;0.90;99.90
3086;DHT22;52812;48.960;9.108;2022-12-10T16:59:54;0.90;99.90
3086;DHT22;52812;48.960;9.108;2022-12-10T17:02:19;0.80;99.90
3086;DHT22;52812;48.960;9.108;2022-12-10T17:04:46;0.80;99.90
3086;DHT22;52812;48.960;9.108;2022-12-10T17:07:11;0.80;99.90
3086;DHT22;52812;48.960;9.108;2022-12-10T17:09:37;0.80;99.90
3086;DHT22;52812;48.960;9.108;2022-12-10T17:12:05;0.80;99.90
3086;DHT22;52812;48.960;9.108;2022-12-10T17:14:37;0.80;99.90
3086;DHT22;52812;48.960;9.108;2022-12-10T17:17:04;0.80;99.90
3086;DHT22;52812;48.960;9.108;2022-12-10T17:19:32;0.80;99.90
3086;DHT22;52812;48.960;9.108;2022-12-10T17:21:58;0.80;99.90
3086;DHT22;52812;48.960;9.108;2022-12-10T17:24:24;0.70;99.90
3086;DHT22;52812;48.960;9.108;2022-12-10T17:26:50;0.70;99.90
3086;DHT22;52812;48.960;9.108;2022-12-10T17:29:27;0.60;99.90
3086;DHT22;52812;48.960;9.108;2022-12-10T17:31:53;0.60;99.90
3086;DHT22;52812;48.960;9.108;2022-12-10T17:34:18;0.60;99.90
3086;DHT22;52812;48.960;9.108;2022-12-10T17:36:46;0.50;99.90
3086;DHT22;52812;48.960;9.108;2022-12-10T17:39:14;0.50;99.90
3086;DHT22;52812;48.960;9.108;2022-12-10T17:41:39;0.50;99.90
3086;DHT22;52812;48.960;9.108;2022-12-10T17:44:05;0.40;99.90
3086;DHT22;52812;48.960;9.108;2022-12-10T17:46:31;0.40;99.90
3086;DHT22;52812;48.960;9.108;2022-12-10T17:48:57;0.40;99.90
3086;DHT22;52812;48.960;9.108;2022-12-10T17:51:23;0.30;99.90
3086;DHT22;52812;48.960;9.108;2022-12-10T17:53:48;0.30;99.90
3086;DHT22;52812;48.960;9.108;2022-12-10T17:56:19;0.20;99.90
3086;DHT22;52812;48.960;9.108;2022-12-10T17:58:47;0.20;99.90
3086;DHT22;52812;48.960;9.108;2022-12-10T18:01:13;0.20;99.90
3086;DHT22;52812;48.960;9.108;2022-12-10T18:03:40;0.20;99.90
3086;DHT22;52812;48.960;9.108;2022-12-10T18:06:29;0.10;99.90
3086;DHT22;52812;48.960;9.108;2022-12-10T18:08:59;0.10;99.90
3086;DHT22;52812;48.960;9.108;2022-12-10T18:11:29;0.10;99.90
3086;DHT22;52812;48.960;9.108;2022-12-10T18:13:55;0.00;99.90
3086;DHT22;52812;48.960;9.108;2022-12-10T18:16:24;0.10;99.90
3086;DHT22;52812;48.960;9.108;2022-12-10T18:18:53;0.10;99.90
3086;DHT22;52812;48.960;9.108;2022-12-10T18:21:20;0.10;99.90
3086;DHT22;52812;48.960;9.108;2022-12-10T18:23:46;0.10;99.90
3086;DHT22;52812;48.960;9.108;2022-12-10T18:26:14;0.10;99.90
3086;DHT22;52812;48.960;9.108;2022-12-10T18:31:09;0.10;99.90
3086;DHT22;52812;48.960;9.108;2022-12-10T18:33:43;0.10;99.90